Time;durP1;ratioP1;P1;durP2;ratioP2;P2;SDS_P1;SDS_P2;PMS_P1;PMS_P2;Temp;Humidity;BMP_temperature;BMP_pressure;BME280_temperature;BME280_humidity;BME280_pressure;Samples;Min_cycle;Max_cycle;Signal;HPM_P1;HPM_P2
2023/05/16 00:01:47;;;;;;;11.77;8.90;;;;;;;15.67;82.09;96885.00;5008230;28;20274;-74
2023/05/16 00:05:09;;;;;;;10.27;8.50;;;;;;;15.69;82.22;96882.28;5008117;28;20258;-71
2023/05/16 00:08:30;;;;;;;12.17;8.57;;;;;;;15.83;81.78;96885.59;5006866;28;20621;-78
2023/05/16 00:11:11;;;;;;;11.03;8.90;;;;;;;15.93;81.30;96880.59;5009155;28;20196;-70
2023/05/16 00:13:41;;;;;;;11.60;9.07;;;;;;;15.99;80.82;96875.75;4987589;28;20200;-79
2023/05/16 00:16:08;;;;;;;12.43;9.07;;;;;;;16.00;80.73;96869.63;4987212;28;20196;-70
2023/05/16 00:18:36;;;;;;;11.37;9.50;;;;;;;16.01;80.78;96873.88;4988637;28;20224;-70
2023/05/16 00:21:03;;;;;;;10.33;9.27;;;;;;;15.95;81.25;96882.16;4988153;28;20604;-67
2023/05/16 00:23:31;;;;;;;12.17;9.73;;;;;;;15.94;81.08;96875.28;4988217;28;20192;-68
2023/05/16 00:25:58;;;;;;;13.87;10.07;;;;;;;15.95;81.33;96871.69;4986941;28;20184;-68
2023/05/16 00:28:25;;;;;;;12.50;9.43;;;;;;;15.88;81.32;96872.25;4988145;28;20626;-68
2023/05/16 00:30:52;;;;;;;10.53;9.43;;;;;;;15.92;81.67;96876.31;4988524;28;20202;-68
2023/05/16 00:33:19;;;;;;;10.77;9.10;;;;;;;15.81;81.72;96856.16;4987698;28;20280;-68
2023/05/16 00:35:46;;;;;;;11.10;9.10;;;;;;;15.84;82.11;96866.41;4987013;28;20219;-68
2023/05/16 00:38:13;;;;;;;11.00;9.17;;;;;;;15.48;83.50;96856.69;4987868;28;20196;-68
2023/05/16 00:40:40;;;;;;;12.83;10.47;;;;;;;15.45;83.87;96864.75;4988038;28;20234;-67
2023/05/16 00:43:08;;;;;;;10.73;9.60;;;;;;;15.48;83.85;96867.13;5002647;28;20196;-68
2023/05/16 00:45:35;;;;;;;12.67;9.83;;;;;;;15.64;82.97;96859.09;4987831;28;20271;-68
2023/05/16 00:48:03;;;;;;;13.00;9.90;;;;;;;15.83;82.88;96866.50;4987090;28;20211;-67
2023/05/16 00:50:33;;;;;;;12.20;9.60;;;;;;;15.80;83.36;96880.63;4987339;28;20200;-68
2023/05/16 00:53:00;;;;;;;11.07;9.97;;;;;;;15.84;83.56;96876.84;4986960;28;20180;-68
2023/05/16 00:55:27;;;;;;;12.40;9.53;;;;;;;15.82;83.92;96883.97;4954146;28;20196;-70
2023/05/16 00:57:56;;;;;;;12.70;9.60;;;;;;;15.75;84.46;96887.91;5002922;28;20195;-67
2023/05/16 01:00:24;;;;;;;12.83;9.60;;;;;;;15.63;84.75;96883.53;4986153;28;20706;-73
2023/05/16 01:02:52;;;;;;;11.17;9.83;;;;;;;15.71;84.50;96891.69;4987578;28;20212;-67
2023/05/16 01:05:20;;;;;;;12.83;9.70;;;;;;;15.72;84.26;96869.88;4988146;28;20265;-67
2023/05/16 01:07:47;;;;;;;11.07;9.97;;;;;;;15.69;84.35;96879.66;4987097;28;20578;-71
2023/05/16 01:10:14;;;;;;;12.63;10.60;;;;;;;15.71;84.53;96883.84;4988018;28;20199;-69
2023/05/16 01:13:00;;;;;;;12.07;10.00;;;;;;;15.58;84.85;96869.94;5002331;28;20585;-67
2023/05/16 01:15:31;;;;;;;11.97;10.40;;;;;;;15.22;87.29;96862.81;5002653;28;20217;-69
2023/05/16 01:18:10;;;;;;;12.33;10.13;;;;;;;15.05;88.06;96859.66;4987667;28;20188;-68
2023/05/16 01:20:59;;;;;;;11.87;9.30;;;;;;;15.08;87.97;96875.09;5001833;28;20227;-71
2023/05/16 01:23:50;;;;;;;11.10;9.70;;;;;;;15.07;87.74;96874.25;4987797;28;20192;-68
2023/05/16 01:26:25;;;;;;;11.20;9.80;;;;;;;15.17;87.47;96866.66;4986939;28;20199;-69
2023/05/16 01:28:54;;;;;;;12.87;9.83;;;;;;;15.28;86.75;96872.00;4987072;28;20242;-68
2023/05/16 01:31:22;;;;;;;12.30;9.53;;;;;;;15.30;85.30;96876.19;4987652;28;20191;-69
2023/05/16 01:33:50;;;;;;;12.03;10.33;;;;;;;15.41;84.77;96873.66;4985611;28;20235;-69
2023/05/16 01:36:31;;;;;;;12.97;10.43;;;;;;;15.34;84.72;96862.00;4986277;28;20666;-68
2023/05/16 01:39:51;;;;;;;14.00;11.37;;;;;;;15.03;85.61;96856.31;4993935;28;20234;-81
2023/05/16 01:42:23;;;;;;;13.13;10.80;;;;;;;14.83;86.80;96849.81;5000632;28;20611;-75
2023/05/16 01:45:05;;;;;;;12.83;10.83;;;;;;;14.88;86.43;96852.13;5006056;28;20197;-69
2023/05/16 01:47:38;;;;;;;12.93;10.13;;;;;;;14.89;86.16;96848.56;5021755;28;20190;-69
2023/05/16 01:50:16;;;;;;;13.40;10.13;;;;;;;14.85;86.12;96847.09;5021640;28;20202;-67
2023/05/16 01:52:57;;;;;;;12.67;9.70;;;;;;;14.95;85.82;96838.56;5006681;28;20187;-71
2023/05/16 01:55:44;;;;;;;14.90;10.20;;;;;;;15.15;85.49;96840.69;5004804;28;20187;-81
2023/05/16 01:58:13;;;;;;;12.90;9.83;;;;;;;15.24;85.10;96820.97;5007142;28;20215;-76
2023/05/16 02:00:42;;;;;;;11.13;9.93;;;;;;;15.35;84.20;96826.31;5006331;28;20217;-76
2023/05/16 02:03:09;;;;;;;12.90;9.90;;;;;;;15.33;84.07;96823.78;5006705;28;20183;-69
2023/05/16 02:05:37;;;;;;;13.60;9.60;;;;;;;15.38;83.98;96832.16;5006798;28;20207;-71
2023/05/16 02:08:04;;;;;;;11.77;9.57;;;;;;;15.45;83.57;96825.63;5014701;28;20284;-68
2023/05/16 02:10:31;;;;;;;13.53;9.87;;;;;;;15.48;83.52;96815.91;4994265;28;20267;-69
2023/05/16 02:12:59;;;;;;;11.93;9.60;;;;;;;15.50;83.31;96820.06;4985347;28;20238;-76
2023/05/16 02:15:26;;;;;;;13.90;10.17;;;;;;;15.47;83.51;96822.88;4985929;28;20191;-70
2023/05/16 02:17:54;;;;;;;11.20;9.63;;;;;;;15.47;83.50;96825.50;4986741;28;20204;-69
2023/05/16 02:20:21;;;;;;;12.90;10.13;;;;;;;15.55;83.34;96817.13;4985421;28;20229;-68
2023/05/16 02:22:48;;;;;;;15.33;9.50;;;;;;;15.57;83.06;96812.63;4986935;28;20192;-70
2023/05/16 02:25:16;;;;;;;12.07;9.30;;;;;;;15.44;83.31;96804.81;4986643;28;20275;-73
2023/05/16 02:27:43;;;;;;;13.13;9.23;;;;;;;15.50;83.25;96801.78;5002167;28;20192;-68
2023/05/16 02:30:11;;;;;;;12.53;8.80;;;;;;;15.18;84.32;96793.53;4985057;28;20250;-70
2023/05/16 02:32:39;;;;;;;11.30;8.70;;;;;;;15.18;84.47;96801.34;5002175;28;20556;-73
2023/05/16 02:35:07;;;;;;;11.47;8.80;;;;;;;15.12;84.87;96803.53;4985165;28;20255;-70
2023/05/16 02:37:34;;;;;;;9.70;8.50;;;;;;;15.20;84.79;96802.09;4985697;28;20197;-67
2023/05/16 02:40:04;;;;;;;11.13;9.43;;;;;;;15.14;84.57;96791.22;4990156;28;20704;-68
2023/05/16 02:42:31;;;;;;;11.43;8.97;;;;;;;15.08;85.57;96792.50;4990025;28;20188;-67
2023/05/16 02:44:58;;;;;;;13.67;10.00;;;;;;;15.07;85.49;96798.63;4990518;28;20637;-73
2023/05/16 02:47:26;;;;;;;10.67;9.13;;;;;;;15.11;85.75;96791.41;4989627;28;20710;-69
2023/05/16 02:49:53;;;;;;;12.97;10.20;;;;;;;15.10;85.72;96784.56;4990647;28;20187;-69
2023/05/16 02:52:20;;;;;;;19.90;11.37;;;;;;;15.13;85.52;96792.16;4989879;28;20199;-73
2023/05/16 02:54:47;;;;;;;11.63;9.93;;;;;;;15.14;84.97;96792.06;5005088;28;20192;-71
2023/05/16 02:57:34;;;;;;;13.00;10.70;;;;;;;14.83;86.18;96771.59;4990150;28;20194;-68
2023/05/16 03:00:01;;;;;;;16.73;11.33;;;;;;;14.74;86.65;96781.78;5004672;28;20243;-68
2023/05/16 03:02:30;;;;;;;11.13;9.93;;;;;;;14.84;86.73;96786.28;4990458;28;20697;-69
2023/05/16 03:04:57;;;;;;;12.63;10.00;;;;;;;14.83;86.07;96784.63;4989369;28;20567;-67
2023/05/16 03:07:24;;;;;;;12.77;10.27;;;;;;;14.84;86.24;96790.69;4988950;28;20194;-68
2023/05/16 03:09:51;;;;;;;14.00;10.80;;;;;;;14.93;85.87;96787.44;4989336;28;20221;-68
2023/05/16 03:12:18;;;;;;;12.23;9.93;;;;;;;14.98;85.66;96778.38;4989744;28;20203;-71
2023/05/16 03:14:45;;;;;;;14.50;9.63;;;;;;;15.02;85.79;96795.47;4989591;28;20192;-67
2023/05/16 03:17:12;;;;;;;15.63;10.40;;;;;;;15.10;85.61;96795.00;4996603;28;20207;-68
2023/05/16 03:19:39;;;;;;;15.70;10.17;;;;;;;15.17;85.25;96793.63;5007898;28;20238;-67
2023/05/16 03:22:07;;;;;;;13.47;10.33;;;;;;;15.18;85.26;96792.69;5007575;28;20191;-68
2023/05/16 03:24:34;;;;;;;17.93;11.03;;;;;;;15.26;85.08;96785.19;5008257;28;20189;-67
2023/05/16 03:27:02;;;;;;;20.47;11.47;;;;;;;15.20;85.23;96796.03;5008988;28;20194;-67
2023/05/16 03:29:30;;;;;;;12.10;9.77;;;;;;;15.16;85.03;96791.97;5008978;28;20214;-67
2023/05/16 03:31:56;;;;;;;13.47;9.83;;;;;;;15.03;85.75;96788.50;5003881;28;20678;-68
2023/05/16 03:34:23;;;;;;;13.87;10.23;;;;;;;15.18;84.56;96795.28;5001035;28;20290;-74
2023/05/16 03:36:51;;;;;;;16.00;10.90;;;;;;;15.07;85.00;96800.41;5005333;28;20211;-71
2023/05/16 03:39:18;;;;;;;18.57;10.93;;;;;;;15.02;85.52;96802.50;5001611;28;20664;-79
2023/05/16 03:41:46;;;;;;;20.20;12.07;;;;;;;15.03;85.43;96794.56;4988451;28;20257;-81
2023/05/16 03:44:12;;;;;;;15.20;11.33;;;;;;;14.94;85.33;96786.53;4987326;28;20554;-78
2023/05/16 03:46:40;;;;;;;17.90;11.20;;;;;;;14.86;85.28;96786.22;4989066;28;20226;-71
2023/05/16 03:49:07;;;;;;;17.90;12.73;;;;;;;14.73;86.63;96783.56;4988756;28;20192;-68
2023/05/16 03:51:34;;;;;;;19.47;12.40;;;;;;;14.66;86.87;96790.97;4988702;28;20196;-78
2023/05/16 03:54:01;;;;;;;15.63;11.23;;;;;;;14.68;87.05;96798.66;4988998;28;20200;-76
2023/05/16 03:56:28;;;;;;;17.97;12.87;;;;;;;14.64;87.44;96771.13;4988289;28;20680;-71
2023/05/16 03:58:54;;;;;;;22.07;13.33;;;;;;;15.01;86.37;96801.66;4989189;28;20195;-71
2023/05/16 04:01:21;;;;;;;15.83;11.67;;;;;;;15.00;85.60;96796.53;4987965;28;20667;-70
2023/05/16 04:03:49;;;;;;;17.90;12.53;;;;;;;15.04;85.78;96782.34;4990065;28;20195;-67
2023/05/16 04:06:17;;;;;;;16.33;13.17;;;;;;;14.96;86.28;96785.47;4996591;28;20567;-70
2023/05/16 04:08:44;;;;;;;18.33;13.20;;;;;;;14.86;87.10;96792.22;4994379;28;20593;-70
2023/05/16 04:11:11;;;;;;;17.40;13.40;;;;;;;14.95;86.78;96796.00;4996543;28;20631;-82
2023/05/16 04:13:38;;;;;;;21.30;12.70;;;;;;;15.02;86.81;96803.31;4994986;28;20527;-70
2023/05/16 04:16:06;;;;;;;15.53;12.87;;;;;;;14.97;86.82;96799.34;4988466;28;20200;-72
2023/05/16 04:18:33;;;;;;;17.27;12.90;;;;;;;15.12;86.61;96793.09;4987375;28;20291;-68
2023/05/16 04:21:00;;;;;;;18.20;12.70;;;;;;;15.23;86.43;96816.66;5005436;28;20274;-69
2023/05/16 04:23:27;;;;;;;15.00;11.53;;;;;;;15.21;86.23;96813.34;5007593;28;20286;-68
2023/05/16 04:25:55;;;;;;;16.87;11.77;;;;;;;15.19;86.53;96817.81;5022799;28;20219;-68
2023/05/16 04:28:22;;;;;;;16.23;12.83;;;;;;;15.10;86.83;96821.91;5007841;28;20211;-78
2023/05/16 04:30:50;;;;;;;21.80;13.43;;;;;;;15.28;86.39;96812.84;5007398;28;20195;-75
2023/05/16 04:33:17;;;;;;;21.37;13.33;;;;;;;15.17;87.00;96828.38;5007721;28;20191;-71
2023/05/16 04:35:44;;;;;;;19.60;12.37;;;;;;;15.24;86.78;96816.59;5006694;28;20642;-72
2023/05/16 04:38:11;;;;;;;19.03;13.87;;;;;;;15.20;86.94;96828.19;5008051;28;20187;-68
2023/05/16 04:40:40;;;;;;;14.97;13.23;;;;;;;15.10;88.07;96827.13;5007238;28;20222;-68
2023/05/16 04:43:07;;;;;;;16.33;12.90;;;;;;;15.09;87.83;96830.66;5007581;28;20672;-66
2023/05/16 04:45:34;;;;;;;17.03;13.07;;;;;;;15.20;87.77;96822.13;5007400;28;20663;-66
2023/05/16 04:48:03;;;;;;;17.90;13.00;;;;;;;14.82;89.29;96810.81;5007074;28;20894;-68
2023/05/16 04:50:31;;;;;;;17.27;13.23;;;;;;;14.56;89.98;96795.13;5007323;28;20673;-75
2023/05/16 04:52:58;;;;;;;14.90;12.90;;;;;;;14.45;92.00;96791.50;5005435;28;20269;-69
2023/05/16 04:55:25;;;;;;;18.50;13.37;;;;;;;14.46;92.22;96799.25;5006208;28;20205;-67
2023/05/16 04:57:52;;;;;;;15.27;13.67;;;;;;;14.64;91.87;96792.84;5005233;28;20236;-67
2023/05/16 05:00:20;;;;;;;15.10;13.27;;;;;;;14.80;91.07;96799.63;5006544;28;20301;-67
2023/05/16 05:02:47;;;;;;;19.60;15.07;;;;;;;14.90;90.97;96801.53;5005176;28;20204;-68
2023/05/16 05:05:14;;;;;;;20.93;15.13;;;;;;;15.15;89.54;96804.16;5006859;28;20282;-69
2023/05/16 05:07:42;;;;;;;17.63;13.03;;;;;;;15.35;88.78;96802.81;5007041;28;20551;-67
2023/05/16 05:10:09;;;;;;;16.60;12.37;;;;;;;15.45;87.83;96790.84;5005054;28;20817;-68
2023/05/16 05:12:36;;;;;;;13.93;11.87;;;;;;;15.56;87.17;96798.75;5007531;28;20261;-67
2023/05/16 05:15:05;;;;;;;15.77;12.80;;;;;;;15.65;86.73;96797.28;5006209;28;20199;-67
2023/05/16 05:17:32;;;;;;;19.10;13.00;;;;;;;15.82;86.08;96802.16;5007086;28;20188;-68
2023/05/16 05:19:59;;;;;;;21.03;13.17;;;;;;;15.92;85.19;96790.97;5005305;28;20319;-71
2023/05/16 05:22:29;;;;;;;15.77;12.53;;;;;;;15.97;85.45;96809.75;5006357;28;20206;-75
2023/05/16 05:24:56;;;;;;;15.37;11.73;;;;;;;16.08;84.89;96795.91;5006859;28;20286;-79
2023/05/16 05:27:24;;;;;;;15.50;12.50;;;;;;;16.00;84.72;96799.09;5006295;28;20209;-69
2023/05/16 05:29:51;;;;;;;16.90;13.57;;;;;;;16.10;84.40;96794.88;5007040;28;20205;-71
2023/05/16 05:32:18;;;;;;;15.87;13.43;;;;;;;16.16;83.84;96797.03;5005909;28;20192;-69
2023/05/16 05:34:45;;;;;;;18.03;13.80;;;;;;;16.27;83.57;96796.28;5021735;28;20631;-67
2023/05/16 05:37:13;;;;;;;15.10;12.50;;;;;;;16.48;82.10;96804.34;5005731;28;20194;-67
2023/05/16 05:39:40;;;;;;;14.47;12.40;;;;;;;16.55;80.98;96810.84;5021376;28;20310;-67
2023/05/16 05:42:07;;;;;;;20.10;12.30;;;;;;;16.61;80.33;96813.00;5006468;28;20195;-67
2023/05/16 05:44:36;;;;;;;18.13;12.53;;;;;;;16.77;80.16;96808.31;5006220;28;20604;-70
2023/05/16 05:47:05;;;;;;;20.10;11.87;;;;;;;16.95;79.16;96809.53;5005602;28;20192;-68
2023/05/16 05:49:33;;;;;;;23.33;12.37;;;;;;;17.12;78.50;96796.03;5020699;28;20222;-68
2023/05/16 05:52:00;;;;;;;16.60;13.03;;;;;;;16.95;78.71;96809.53;5006742;28;20207;-73
2023/05/16 05:54:27;;;;;;;12.53;11.33;;;;;;;17.02;78.57;96816.81;5006136;28;20195;-72
2023/05/16 05:56:57;;;;;;;14.47;12.00;;;;;;;17.08;78.00;96810.31;5005051;28;20226;-72
2023/05/16 05:59:24;;;;;;;17.73;11.70;;;;;;;17.13;78.14;96805.53;5006558;28;20191;-66
2023/05/16 06:01:51;;;;;;;16.23;11.73;;;;;;;17.14;77.82;96799.38;5005781;28;20188;-67
2023/05/16 06:04:19;;;;;;;18.00;12.30;;;;;;;17.51;76.95;96806.13;5006392;28;20691;-66
2023/05/16 06:06:47;;;;;;;14.63;12.10;;;;;;;17.62;76.65;96811.34;5005414;28;20698;-66
2023/05/16 06:09:14;;;;;;;16.43;12.00;;;;;;;17.70;76.17;96814.19;5004803;28;20204;-72
2023/05/16 06:11:44;;;;;;;16.87;11.73;;;;;;;17.84;74.87;96814.00;5020591;28;20204;-68
2023/05/16 06:14:11;;;;;;;12.07;10.80;;;;;;;17.94;73.42;96806.22;5007442;28;20672;-68
2023/05/16 06:16:39;;;;;;;14.37;10.77;;;;;;;18.16;73.64;96805.34;5007999;28;20207;-68
2023/05/16 06:19:07;;;;;;;18.47;12.03;;;;;;;18.46;72.76;96814.28;5009344;28;20292;-67
2023/05/16 06:21:34;;;;;;;14.93;10.90;;;;;;;18.42;71.82;96793.63;5009779;28;20598;-75
2023/05/16 06:24:01;;;;;;;11.83;10.57;;;;;;;18.64;70.95;96801.44;5008952;28;20220;-72
2023/05/16 06:26:28;;;;;;;11.67;9.63;;;;;;;18.73;70.35;96760.50;5010069;28;20275;-71
2023/05/16 06:28:55;;;;;;;14.40;10.33;;;;;;;18.74;69.96;96781.38;5008859;28;20185;-72
2023/05/16 06:31:22;;;;;;;15.80;10.17;;;;;;;19.14;70.07;96807.78;5009349;28;20193;-75
2023/05/16 06:33:49;;;;;;;15.80;8.23;;;;;;;18.83;68.71;96811.25;5007844;28;20201;-75
2023/05/16 06:36:16;;;;;;;11.50;9.23;;;;;;;18.52;70.75;96799.81;5009410;28;20194;-74
2023/05/16 06:38:43;;;;;;;12.40;9.37;;;;;;;18.52;71.35;96807.69;5008151;28;20271;-72
2023/05/16 06:41:10;;;;;;;11.20;9.63;;;;;;;18.48;71.65;96794.00;4990677;28;20279;-78
2023/05/16 06:43:39;;;;;;;9.80;8.63;;;;;;;18.77;71.23;96802.13;5009695;28;20608;-74
2023/05/16 06:46:06;;;;;;;13.63;9.10;;;;;;;18.91;69.91;96793.09;5008615;28;20185;-72
2023/05/16 06:48:33;;;;;;;15.20;10.77;;;;;;;19.01;69.57;96784.34;5008020;28;20250;-76
2023/05/16 06:51:00;;;;;;;10.33;9.13;;;;;;;19.02;69.51;96785.97;5008225;28;20217;-73
2023/05/16 06:53:28;;;;;;;8.63;7.73;;;;;;;18.97;69.88;96775.06;5002279;28;20204;-71
2023/05/16 06:55:55;;;;;;;10.53;8.30;;;;;;;19.13;68.94;96785.09;5008706;28;20649;-72
2023/05/16 06:58:22;;;;;;;10.27;9.03;;;;;;;19.24;69.11;96785.88;5008221;28;20194;-75
2023/05/16 07:00:49;;;;;;;9.87;8.50;;;;;;;19.41;67.91;96780.03;5009134;28;20243;-79
2023/05/16 07:03:17;;;;;;;18.27;10.27;;;;;;;19.65;67.32;96768.41;5008333;28;20194;-77
2023/05/16 07:05:45;;;;;;;9.67;7.77;;;;;;;19.47;66.84;96765.56;5009154;28;20200;-79
2023/05/16 07:08:12;;;;;;;10.70;8.83;;;;;;;19.56;66.70;96766.56;5007076;28;20643;-78
2023/05/16 07:10:39;;;;;;;12.40;8.67;;;;;;;19.59;66.96;96761.03;5007326;28;20266;-70
2023/05/16 07:13:06;;;;;;;11.80;9.00;;;;;;;19.60;66.48;96765.34;5008559;28;20678;-67
2023/05/16 07:15:33;;;;;;;9.50;7.43;;;;;;;19.37;67.76;96770.75;5023151;28;20217;-70
2023/05/16 07:18:00;;;;;;;14.37;9.63;;;;;;;19.45;68.42;96770.94;5008778;28;20197;-69
2023/05/16 07:20:27;;;;;;;12.37;9.13;;;;;;;19.76;66.82;96777.03;5007584;28;20225;-69
2023/05/16 07:22:56;;;;;;;12.13;9.30;;;;;;;20.07;65.75;96780.44;5008969;28;20199;-69
2023/05/16 07:25:24;;;;;;;11.70;8.57;;;;;;;20.09;65.32;96770.63;5005898;28;20280;-67
2023/05/16 07:27:52;;;;;;;10.20;8.37;;;;;;;20.13;65.46;96772.03;5006617;28;20229;-68
2023/05/16 07:30:20;;;;;;;11.57;8.63;;;;;;;20.05;65.92;96771.88;5007837;28;20198;-67
2023/05/16 07:32:48;;;;;;;14.23;9.53;;;;;;;20.33;65.05;96757.13;5006682;28;20853;-67
2023/05/16 07:35:15;;;;;;;15.27;9.33;;;;;;;20.30;64.29;96752.97;5008533;28;20278;-68
2023/05/16 07:37:42;;;;;;;12.27;8.63;;;;;;;20.63;63.58;96764.91;5007721;28;20198;-68
2023/05/16 07:40:10;;;;;;;17.17;8.83;;;;;;;20.59;63.50;96750.34;5008283;28;20275;-69
2023/05/16 07:42:37;;;;;;;12.80;9.10;;;;;;;20.25;64.51;96747.28;5007170;28;20245;-73
2023/05/16 07:45:06;;;;;;;19.20;9.70;;;;;;;20.36;63.83;96739.25;5007713;28;20298;-72
2023/05/16 07:47:33;;;;;;;15.67;8.83;;;;;;;20.36;63.76;96757.69;5007580;28;20195;-68
2023/05/16 07:50:00;;;;;;;14.37;8.93;;;;;;;20.40;62.87;96739.84;5007114;28;20192;-70
2023/05/16 07:52:30;;;;;;;22.73;12.47;;;;;;;20.64;62.79;96756.03;5007719;28;20191;-71
2023/05/16 07:54:57;;;;;;;14.93;10.97;;;;;;;20.82;62.24;96757.00;5007035;28;20196;-70
2023/05/16 07:57:25;;;;;;;16.40;10.73;;;;;;;20.94;62.07;96748.81;4990492;28;20192;-68
2023/05/16 07:59:52;;;;;;;12.80;9.50;;;;;;;20.88;61.75;96723.06;5007084;28;20191;-70
2023/05/16 08:02:19;;;;;;;15.93;9.27;;;;;;;20.81;61.76;96726.41;5006398;28;20312;-67
2023/05/16 08:04:47;;;;;;;13.83;9.30;;;;;;;20.78;61.88;96752.97;5007402;28;20569;-73
2023/05/16 08:07:14;;;;;;;14.30;9.90;;;;;;;21.11;60.85;96742.03;5006170;28;20607;-69
2023/05/16 08:09:42;;;;;;;20.00;10.37;;;;;;;21.03;61.22;96740.13;5007437;28;20260;-70
2023/05/16 08:12:09;;;;;;;15.47;10.67;;;;;;;21.06;60.98;96728.47;5005397;28;20198;-71
2023/05/16 08:14:36;;;;;;;21.30;9.50;;;;;;;21.15;60.79;96717.06;5007157;28;20250;-69
2023/05/16 08:17:03;;;;;;;13.90;9.63;;;;;;;21.08;60.89;96716.78;5006724;28;20234;-69
2023/05/16 08:19:31;;;;;;;13.27;10.13;;;;;;;21.16;61.20;96728.44;5007452;28;20219;-69
2023/05/16 08:22:38;;;;;;;18.00;10.67;;;;;;;21.35;60.95;96729.19;5004753;28;20262;-75
2023/05/16 08:26:00;;;;;;;16.20;11.30;;;;;;;21.33;60.17;96728.50;4986311;28;20207;-67
2023/05/16 08:29:21;;;;;;;15.43;8.57;;;;;;;21.31;59.93;96730.47;4987109;28;20655;-72
2023/05/16 08:32:02;;;;;;;19.87;8.47;;;;;;;21.35;60.32;96723.94;5001090;28;20200;-77
2023/05/16 08:35:11;;;;;;;16.40;8.50;;;;;;;21.44;59.11;96716.97;5004664;28;20203;-76
2023/05/16 08:38:32;;;;;;;17.23;8.57;;;;;;;21.48;59.04;96728.88;5004223;28;20576;-69
2023/05/16 08:41:53;;;;;;;12.17;8.57;;;;;;;21.17;60.05;96723.03;5003672;28;20282;-74
2023/05/16 08:45:13;;;;;;;15.17;9.60;;;;;;;21.42;59.20;96738.19;5004720;28;20287;-75
2023/05/16 08:48:34;;;;;;;13.50;7.97;;;;;;;21.34;61.17;96726.72;5004797;28;20201;-72
2023/05/16 08:51:55;;;;;;;17.57;9.47;;;;;;;21.48;60.38;96742.06;5003667;28;20207;-72
2023/05/16 08:55:18;;;;;;;13.20;8.00;;;;;;;21.54;60.59;96737.03;5004144;28;20211;-74
2023/05/16 08:58:39;;;;;;;13.13;7.90;;;;;;;21.71;60.44;96727.53;5004542;28;20261;-68
2023/05/16 09:01:23;;;;;;;20.63;9.37;;;;;;;21.64;59.89;96734.34;5005655;28;20253;-72
2023/05/16 09:03:51;;;;;;;12.10;8.23;;;;;;;21.61;59.57;96719.69;5006048;28;20619;-71
2023/05/16 09:06:18;;;;;;;12.00;8.17;;;;;;;21.65;58.41;96707.88;5005939;28;20594;-68
2023/05/16 09:08:46;;;;;;;13.63;8.73;;;;;;;21.86;58.96;96719.00;5005320;28;20191;-68
2023/05/16 09:11:13;;;;;;;14.93;10.10;;;;;;;21.99;57.54;96718.66;5004966;28;20294;-74
2023/05/16 09:13:40;;;;;;;17.20;10.47;;;;;;;22.03;58.26;96713.94;5003690;28;20214;-68
2023/05/16 09:16:12;;;;;;;15.47;9.67;;;;;;;22.08;58.05;96701.97;5006193;28;20215;-69
2023/05/16 09:18:42;;;;;;;12.17;9.33;;;;;;;22.36;58.39;96715.94;5005768;28;20717;-67
2023/05/16 09:21:10;;;;;;;14.37;9.70;;;;;;;22.48;58.83;96718.19;5005496;28;20228;-68
2023/05/16 09:23:37;;;;;;;13.63;8.97;;;;;;;22.33;58.21;96703.88;5006379;28;20211;-71
2023/05/16 09:26:06;;;;;;;13.67;9.83;;;;;;;22.53;57.55;96712.44;5005459;28;20231;-69
2023/05/16 09:28:37;;;;;;;10.70;8.73;;;;;;;22.50;57.40;96713.56;5005718;28;20637;-68
2023/05/16 09:31:25;;;;;;;18.90;10.77;;;;;;;22.65;57.87;96706.00;5005573;28;20239;-72
2023/05/16 09:33:55;;;;;;;19.03;8.50;;;;;;;23.01;56.80;96723.47;5005820;28;20689;-68
2023/05/16 09:36:22;;;;;;;12.73;7.63;;;;;;;23.23;55.61;96748.53;5005779;28;20271;-73
2023/05/16 09:38:50;;;;;;;10.90;8.00;;;;;;;23.26;54.87;96748.22;5005664;28;20197;-76
2023/05/16 09:41:17;;;;;;;14.70;7.90;;;;;;;23.26;55.88;96735.03;5006032;28;20217;-68
2023/05/16 09:43:45;;;;;;;7.53;6.40;;;;;;;23.52;54.12;96724.44;5005048;28;20651;-69
2023/05/16 09:46:13;;;;;;;10.57;7.23;;;;;;;23.49;54.08;96735.34;5004826;28;20198;-68
2023/05/16 09:48:44;;;;;;;12.03;8.07;;;;;;;23.29;54.43;96732.06;5009506;28;20209;-67
2023/05/16 09:51:11;;;;;;;11.27;6.50;;;;;;;23.10;54.07;96737.56;5009887;28;20204;-76
2023/05/16 09:53:40;;;;;;;9.53;6.53;;;;;;;23.15;54.01;96735.25;5010095;28;20184;-77
2023/05/16 09:56:11;;;;;;;13.53;6.87;;;;;;;23.00;55.00;96735.00;5009414;28;20194;-72
2023/05/16 09:58:40;;;;;;;11.63;6.70;;;;;;;22.55;56.94;96734.25;5008970;28;20181;-66
2023/05/16 10:01:09;;;;;;;13.17;7.33;;;;;;;22.87;55.78;96726.66;5008821;28;20283;-68
2023/05/16 10:03:39;;;;;;;8.93;6.10;;;;;;;22.23;56.42;96710.19;5010011;28;20198;-74
2023/05/16 10:06:07;;;;;;;9.23;6.50;;;;;;;22.70;56.68;96718.75;5009440;28;20285;-71
2023/05/16 10:08:35;;;;;;;7.80;6.23;;;;;;;22.54;56.92;96714.97;5008471;28;20280;-67
2023/05/16 10:11:04;;;;;;;10.80;6.43;;;;;;;22.64;56.44;96707.00;5008421;28;20190;-67
2023/05/16 10:13:34;;;;;;;9.67;6.70;;;;;;;23.00;54.93;96707.78;5008004;28;20182;-69
2023/05/16 10:16:07;;;;;;;11.47;6.20;;;;;;;22.92;55.04;96699.75;5008703;28;20267;-78
2023/05/16 10:18:36;;;;;;;9.03;5.97;;;;;;;22.91;53.95;96692.84;4991426;28;20684;-74
2023/05/16 10:21:07;;;;;;;12.23;7.07;;;;;;;23.23;53.37;96678.00;5009271;28;20256;-77
2023/05/16 10:23:41;;;;;;;13.40;5.60;;;;;;;23.45;51.15;96685.44;5007757;28;20202;-77
2023/05/16 10:26:10;;;;;;;9.90;5.40;;;;;;;22.93;53.16;96673.22;5009217;28;20213;-73
2023/05/16 10:28:39;;;;;;;11.30;5.40;;;;;;;22.58;53.54;96660.09;5009714;28;20199;-67
2023/05/16 10:31:08;;;;;;;8.30;5.20;;;;;;;22.73;52.08;96665.66;5009154;28;20687;-69
2023/05/16 10:33:36;;;;;;;9.87;4.97;;;;;;;22.86;52.43;96663.41;5009879;28;20281;-69
2023/05/16 10:36:04;;;;;;;11.40;5.60;;;;;;;23.26;51.94;96672.44;5008717;28;20267;-67
2023/05/16 10:38:33;;;;;;;8.43;4.87;;;;;;;23.61;49.92;96663.53;5008231;28;20193;-68
2023/05/16 10:41:01;;;;;;;10.00;5.43;;;;;;;23.69;49.91;96660.91;5007143;28;20237;-71
2023/05/16 10:43:29;;;;;;;12.33;4.80;;;;;;;23.69;50.30;96631.84;5009143;28;20635;-71
2023/05/16 10:46:10;;;;;;;13.87;5.67;;;;;;;23.75;49.15;96636.47;5008972;28;20191;-69
2023/05/16 10:48:40;;;;;;;8.43;5.17;;;;;;;23.36;50.96;96644.09;5008345;28;20194;-67
2023/05/16 10:51:22;;;;;;;9.10;4.70;;;;;;;23.30;50.43;96639.41;5007700;28;20198;-70
2023/05/16 10:53:54;;;;;;;10.63;4.37;;;;;;;23.17;50.19;96638.19;5007159;28;20230;-70
2023/05/16 10:56:22;;;;;;;8.33;4.60;;;;;;;23.19;50.27;96623.81;5007483;28;20193;-67
2023/05/16 10:58:52;;;;;;;10.63;4.70;;;;;;;23.17;50.09;96604.66;5006679;28;20198;-71
2023/05/16 11:01:24;;;;;;;12.37;4.70;;;;;;;23.42;49.96;96618.84;5008003;28;20233;-73
2023/05/16 11:06:45;;;;;;;7.87;4.30;;;;;;;23.29;50.88;96605.19;5008293;28;20682;-68
2023/05/16 11:09:12;;;;;;;12.20;5.20;;;;;;;23.43;50.76;96613.38;5007203;28;20194;-71
2023/05/16 11:11:41;;;;;;;9.03;5.13;;;;;;;23.50;52.14;96613.59;5008243;28;20197;-72
2023/05/16 11:14:33;;;;;;;9.73;5.30;;;;;;;23.45;51.55;96586.81;5008115;28;20187;-68
2023/05/16 11:17:23;;;;;;;9.50;4.70;;;;;;;23.32;51.97;96597.84;4991382;28;20785;-70
2023/05/16 11:20:31;;;;;;;11.40;4.30;;;;;;;23.16;52.66;96600.34;5007979;28;20360;-71
2023/05/16 11:23:18;;;;;;;10.83;4.90;;;;;;;22.80;53.29;96593.56;5007177;28;20188;-73
2023/05/16 11:26:39;;;;;;;6.67;6.00;;;;;;;23.11;52.56;96585.97;5006405;28;20185;-74
2023/05/16 11:30:00;;;;;;;8.60;5.20;;;;;;;23.22;51.92;96586.53;5008352;28;20213;-67
2023/05/16 11:33:20;;;;;;;8.83;5.20;;;;;;;23.48;52.08;96589.13;5006436;28;20625;-71
2023/05/16 11:36:41;;;;;;;11.67;5.17;;;;;;;23.15;53.83;96600.50;5006424;28;20732;-69
2023/05/16 11:40:03;;;;;;;6.00;5.13;;;;;;;23.36;54.33;96596.53;5008181;28;20192;-73
2023/05/16 11:43:23;;;;;;;10.90;5.53;;;;;;;23.40;53.56;96591.75;5007904;28;20225;-73
2023/05/16 11:46:45;;;;;;;13.33;5.33;;;;;;;23.30;53.92;96591.00;5007562;28;20203;-74
2023/05/16 11:50:06;;;;;;;12.23;5.40;;;;;;;23.48;52.93;96585.66;5005513;28;20413;-68
2023/05/16 11:53:27;;;;;;;7.40;4.40;;;;;;;23.14;51.97;96588.31;5005608;28;20198;-70